createdAt,value
2023-04-10T00:00:23.490Z,102178.78
2023-04-10T00:02:50.324Z,102184.13
2023-04-10T00:05:17.647Z,102177.88
2023-04-10T00:07:44.198Z,102179.63
2023-04-10T00:10:10.978Z,102170.69
2023-04-10T00:12:40.301Z,102167.03
2023-04-10T00:15:07.498Z,102171.59
2023-04-10T00:17:34.159Z,102172.44
2023-04-10T00:20:01.285Z,102168.91
2023-04-10T00:22:27.857Z,102170.63
2023-04-10T00:24:54.470Z,102166.22
2023-04-10T00:27:21.037Z,102153.66
2023-04-10T00:29:47.652Z,102152.72
2023-04-10T00:32:14.298Z,102152.72
2023-04-10T00:34:41.129Z,102154.50
2023-04-10T00:37:08.026Z,102143.78
2023-04-10T00:39:34.590Z,102152.75
2023-04-10T00:42:02.421Z,102143.81
2023-04-10T00:44:29.067Z,102134.88
2023-04-10T00:46:55.737Z,102130.38
2023-04-10T00:49:22.361Z,102127.69
2023-04-10T00:51:48.934Z,102122.34
2023-04-10T00:54:15.658Z,102113.38
2023-04-10T00:56:43.203Z,102110.69
2023-04-10T00:59:09.779Z,102111.53
2023-04-10T01:01:36.502Z,102100.84
2023-04-10T01:04:03.516Z,102097.28
2023-04-10T01:06:48.058Z,102108.88
2023-04-10T01:09:23.938Z,102102.59
2023-04-10T01:12:30.884Z,102105.38
2023-04-10T01:15:04.538Z,102100.00
2023-04-10T01:17:51.239Z,102091.13
2023-04-10T01:20:22.749Z,102093.75
2023-04-10T01:23:26.547Z,102093.78
2023-04-10T01:26:05.693Z,102081.22
2023-04-10T01:29:09.925Z,102081.25
2023-04-10T01:31:37.830Z,102069.66
2023-04-10T01:34:26.738Z,102065.16
2023-04-10T01:37:00.484Z,102066.00
2023-04-10T01:39:28.549Z,102057.03
2023-04-10T01:41:59.922Z,102056.19
2023-04-10T01:44:29.513Z,102057.97
2023-04-10T01:46:56.973Z,102059.78
2023-04-10T01:49:25.803Z,102054.44
2023-04-10T01:51:54.664Z,102047.28
2023-04-10T01:54:21.290Z,102054.41
2023-04-10T01:56:47.846Z,102044.44
2023-04-10T01:59:14.402Z,102049.81
2023-04-10T02:01:41.017Z,102047.25
2023-04-10T02:04:07.734Z,102040.94
2023-04-10T02:06:49.535Z,102050.81
2023-04-10T02:09:38.171Z,102041.88
2023-04-10T02:12:07.117Z,102042.72
2023-04-10T02:14:37.161Z,102037.38
2023-04-10T02:17:03.887Z,102039.19
2023-04-10T02:19:32.170Z,102031.13
2023-04-10T02:21:59.113Z,102031.16
2023-04-10T02:24:26.130Z,102028.41
2023-04-10T02:26:53.560Z,102026.66
2023-04-10T02:29:20.158Z,102019.53
2023-04-10T02:31:47.051Z,102015.91
2023-04-10T02:34:13.819Z,102012.25
2023-04-10T02:36:40.646Z,102009.59
2023-04-10T02:39:08.292Z,102010.47
2023-04-10T02:41:34.940Z,102007.88
2023-04-10T02:44:01.786Z,102005.22
2023-04-10T02:46:28.373Z,102007.03
2023-04-10T02:48:55.417Z,102006.88
2023-04-10T02:51:22.033Z,102005.19
2023-04-10T02:53:48.830Z,102007.00
2023-04-10T02:56:15.467Z,101998.91
2023-04-10T02:58:45.516Z,101998.91
2023-04-10T03:01:12.617Z,102004.19
2023-04-10T03:03:39.578Z,102012.28
2023-04-10T03:06:08.053Z,102008.72
2023-04-10T03:08:34.754Z,102013.19
2023-04-10T03:11:01.333Z,102009.59
2023-04-10T03:13:27.893Z,102001.44
2023-04-10T03:15:54.524Z,101998.78
2023-04-10T03:18:21.140Z,102014.75
2023-04-10T03:20:47.731Z,102002.31
2023-04-10T03:23:14.392Z,102013.09
2023-04-10T03:25:41.288Z,102008.72
2023-04-10T03:28:07.865Z,102002.25
2023-04-10T03:30:37.066Z,102004.09
2023-04-10T03:33:03.847Z,102004.06
2023-04-10T03:35:30.408Z,101995.16
2023-04-10T03:37:56.944Z,101993.38
2023-04-10T03:40:23.869Z,101993.41
2023-04-10T03:42:50.463Z,101998.72
2023-04-10T03:45:17.126Z,102002.31
2023-04-10T03:47:43.696Z,101996.00
2023-04-10T03:50:10.583Z,101990.72
2023-04-10T03:52:37.160Z,101984.44
2023-04-10T03:55:03.796Z,101977.31
2023-04-10T03:57:30.348Z,101963.94
2023-04-10T03:59:56.907Z,101965.69
2023-04-10T04:02:23.618Z,101963.00
2023-04-10T04:04:50.544Z,101957.69
2023-04-10T04:07:17.150Z,101959.44
2023-04-10T04:09:43.706Z,101954.09
2023-04-10T04:12:10.264Z,101950.50
2023-04-10T04:14:36.811Z,101946.06
2023-04-10T04:17:03.457Z,101932.69
2023-04-10T04:19:30.174Z,101931.78
2023-04-10T04:21:57.801Z,101923.78
2023-04-10T04:24:24.482Z,101935.34
2023-04-10T04:26:51.098Z,101923.75
2023-04-10T04:29:17.679Z,101925.59
2023-04-10T04:31:44.281Z,101914.75
2023-04-10T04:34:10.884Z,101912.97
2023-04-10T04:36:37.502Z,101913.88
2023-04-10T04:39:04.101Z,101914.75
2023-04-10T04:41:32.552Z,101907.66
2023-04-10T04:44:01.302Z,101900.44
2023-04-10T04:46:28.214Z,101907.56
2023-04-10T04:48:54.942Z,101898.69
2023-04-10T04:51:21.529Z,101895.16
2023-04-10T04:53:48.066Z,101899.63
2023-04-10T04:56:14.683Z,101894.31
2023-04-10T04:58:41.265Z,101896.94
2023-04-10T05:01:08.800Z,101899.59
2023-04-10T05:03:35.558Z,101896.03
2023-04-10T05:06:02.251Z,101902.16
2023-04-10T05:08:28.793Z,101903.94
2023-04-10T05:10:55.448Z,101904.84
2023-04-10T05:13:22.050Z,101911.09
2023-04-10T05:15:49.054Z,101907.50
2023-04-10T05:18:19.616Z,101897.69
2023-04-10T05:20:47.423Z,101903.97
2023-04-10T05:23:14.975Z,101900.44
2023-04-10T05:25:41.688Z,101905.69
2023-04-10T05:28:08.565Z,101894.91
2023-04-10T05:30:35.207Z,101898.53
2023-04-10T05:33:01.888Z,101891.47
2023-04-10T05:35:28.544Z,101888.78
2023-04-10T05:37:55.212Z,101898.59
2023-04-10T05:40:21.780Z,101887.09
2023-04-10T05:42:48.353Z,101889.56
2023-04-10T05:45:15.287Z,101878.88
2023-04-10T05:47:42.028Z,101881.69
2023-04-10T05:50:11.500Z,101881.59
2023-04-10T05:52:39.194Z,101880.75
2023-04-10T05:55:06.333Z,101880.66
2023-04-10T05:57:32.894Z,101880.66
2023-04-10T05:59:59.454Z,101870.00
2023-04-10T06:02:27.533Z,101873.66
2023-04-10T06:04:54.475Z,101866.47
2023-04-10T06:07:21.390Z,101871.88
2023-04-10T06:09:47.952Z,101877.19
2023-04-10T06:12:14.649Z,101867.44
2023-04-10T06:14:41.202Z,101873.69
2023-04-10T06:17:07.750Z,101868.31
2023-04-10T06:19:34.326Z,101865.69
2023-04-10T06:22:00.967Z,101865.66
2023-04-10T06:24:27.553Z,101864.78
2023-04-10T06:26:54.142Z,101855.81
2023-04-10T06:29:20.791Z,101853.22
2023-04-10T06:31:47.411Z,101847.81
2023-04-10T06:34:14.036Z,101846.94
2023-04-10T06:36:40.772Z,101840.69
2023-04-10T06:39:07.538Z,101834.41
2023-04-10T06:41:34.125Z,101839.78
2023-04-10T06:44:03.167Z,101835.34
2023-04-10T06:46:30.270Z,101834.44
2023-04-10T06:48:57.029Z,101827.34
2023-04-10T06:51:23.695Z,101836.22
2023-04-10T06:53:50.409Z,101832.63
2023-04-10T06:56:17.003Z,101821.91
2023-04-10T06:58:43.566Z,101820.97
2023-04-10T07:01:10.455Z,101820.16
2023-04-10T07:03:37.157Z,101821.84
2023-04-10T07:06:03.992Z,101820.13
2023-04-10T07:08:30.613Z,101810.28
2023-04-10T07:10:58.642Z,101808.56
2023-04-10T07:13:25.517Z,101806.75
2023-04-10T07:15:52.222Z,101802.28
2023-04-10T07:18:18.865Z,101803.22
2023-04-10T07:20:45.434Z,101797.88
2023-04-10T07:23:12.014Z,101791.72
2023-04-10T07:25:38.569Z,101789.91
2023-04-10T07:28:05.231Z,101784.56
2023-04-10T07:30:31.810Z,101771.22
2023-04-10T07:32:58.645Z,101779.25
2023-04-10T07:35:25.524Z,101773.03
2023-04-10T07:37:54.622Z,101760.56
2023-04-10T07:40:21.239Z,101752.53
2023-04-10T07:42:48.210Z,101753.44
2023-04-10T07:45:14.787Z,101754.31
2023-04-10T07:47:41.497Z,101750.75
2023-04-10T07:50:08.604Z,101746.28
2023-04-10T07:52:35.398Z,101744.53
2023-04-10T07:55:03.440Z,101742.75
2023-04-10T07:57:31.614Z,101738.28
2023-04-10T07:59:58.252Z,101736.50
2023-04-10T08:02:24.963Z,101727.59
2023-04-10T08:04:51.821Z,101718.66
2023-04-10T08:07:21.413Z,101711.56
2023-04-10T08:09:48.198Z,101711.53
2023-04-10T08:12:14.734Z,101710.63
2023-04-10T08:14:41.399Z,101705.28
2023-04-10T08:17:14.455Z,101700.84
2023-04-10T08:19:42.151Z,101696.38
2023-04-10T08:22:09.178Z,101700.88
2023-04-10T08:24:35.813Z,101689.28
2023-04-10T08:27:02.360Z,101690.19
2023-04-10T08:29:28.922Z,101686.59
2023-04-10T08:31:56.540Z,101688.38
2023-04-10T08:34:24.435Z,101685.72
2023-04-10T08:36:51.047Z,101674.09
2023-04-10T08:39:18.370Z,101669.66
2023-04-10T08:41:45.088Z,101667.84
2023-04-10T08:44:11.947Z,101672.34
2023-04-10T08:46:43.667Z,101671.44
2023-04-10T08:49:12.664Z,101666.09
2023-04-10T08:51:51.272Z,101669.66
2023-04-10T08:54:38.886Z,101668.78
2023-04-10T08:57:08.108Z,101649.16
2023-04-10T08:59:36.453Z,101652.69
2023-04-10T09:02:03.187Z,101649.13
2023-04-10T09:04:30.111Z,101649.09
2023-04-10T09:06:56.776Z,101654.47
2023-04-10T09:09:23.324Z,101647.31
2023-04-10T09:11:52.829Z,101643.75
2023-04-10T09:14:23.781Z,101621.44
2023-04-10T09:16:51.516Z,101622.31
2023-04-10T09:19:38.307Z,101625.91
2023-04-10T09:22:05.134Z,101622.34
2023-04-10T09:24:31.728Z,101624.13
2023-04-10T09:26:58.325Z,101618.78
2023-04-10T09:29:26.025Z,101611.59
2023-04-10T09:31:52.581Z,101608.03
2023-04-10T09:34:23.520Z,101598.22
2023-04-10T09:37:01.647Z,101601.78
2023-04-10T09:39:36.079Z,101594.66
2023-04-10T09:42:02.859Z,101595.53
2023-04-10T09:44:34.424Z,101577.69
2023-04-10T09:47:22.767Z,101572.28
2023-04-10T09:49:56.722Z,101573.19
2023-04-10T09:52:26.333Z,101558.88
2023-04-10T09:54:54.128Z,101563.38
2023-04-10T09:57:21.926Z,101555.34
2023-04-10T09:59:50.815Z,101552.66
2023-04-10T10:02:19.019Z,101544.63
2023-04-10T10:04:49.401Z,101538.38
2023-04-10T10:07:18.618Z,101530.34
2023-04-10T10:09:46.504Z,101534.75
2023-04-10T10:12:19.650Z,101513.31
2023-04-10T10:15:25.804Z,101512.38
2023-04-10T10:18:22.121Z,101506.06
2023-04-10T10:20:50.616Z,101504.28
2023-04-10T10:23:18.327Z,101495.31
2023-04-10T10:25:46.244Z,101485.44
2023-04-10T10:28:13.680Z,101480.09
2023-04-10T10:30:40.927Z,101472.03
2023-04-10T10:33:08.242Z,101479.19
2023-04-10T10:35:36.066Z,101470.25
2023-04-10T10:38:03.734Z,101461.31
2023-04-10T10:41:11.984Z,101462.22
2023-04-10T10:43:52.782Z,101460.44
2023-04-10T10:46:32.588Z,101455.97
2023-04-10T10:48:59.703Z,101454.22
2023-04-10T10:51:48.932Z,101447.09
2023-04-10T10:54:31.831Z,101435.50
2023-04-10T10:56:59.143Z,101444.41
2023-04-10T10:59:43.865Z,101441.72
2023-04-10T11:02:18.159Z,101438.06
2023-04-10T11:04:46.517Z,101426.44
2023-04-10T11:07:14.020Z,101414.78
2023-04-10T11:09:51.231Z,101409.38
2023-04-10T11:12:21.042Z,101414.69
2023-04-10T11:15:00.133Z,101411.09
2023-04-10T11:18:02.043Z,101394.94
2023-04-10T11:20:28.890Z,101387.78
2023-04-10T11:23:11.921Z,101382.44
2023-04-10T11:25:49.198Z,101375.28
2023-04-10T11:28:35.187Z,101368.97
2023-04-10T11:31:20.117Z,101367.19
2023-04-10T11:34:07.827Z,101372.63
2023-04-10T11:36:38.429Z,101356.50
2023-04-10T11:39:21.740Z,101351.09
2023-04-10T11:41:50.455Z,101346.63
2023-04-10T11:44:26.623Z,101341.22
2023-04-10T11:46:53.426Z,101336.75
2023-04-10T11:49:22.621Z,101331.34
2023-04-10T11:51:50.363Z,101308.97
2023-04-10T11:54:19.448Z,101307.13
2023-04-10T11:56:57.941Z,101301.69
2023-04-10T11:59:24.824Z,101294.41
2023-04-10T12:01:54.266Z,101290.78
2023-04-10T12:04:22.327Z,101287.94
2023-04-10T12:06:51.505Z,101287.00
2023-04-10T12:09:20.013Z,101283.41
2023-04-10T12:12:03.437Z,101284.28
2023-04-10T12:14:32.674Z,101278.81
2023-04-10T12:17:00.400Z,101277.88
2023-04-10T12:19:27.534Z,101273.38
2023-04-10T12:21:55.030Z,101258.22
2023-04-10T12:24:44.597Z,101264.53
2023-04-10T12:27:21.899Z,101248.44
2023-04-10T12:29:55.354Z,101238.66
2023-04-10T12:32:22.376Z,101234.22
2023-04-10T12:34:57.680Z,101225.25
2023-04-10T12:37:25.972Z,101232.44
2023-04-10T12:39:52.590Z,101218.16
2023-04-10T12:42:23.121Z,101219.97
2023-04-10T12:44:53.930Z,101209.16
2023-04-10T12:47:20.760Z,101216.34
2023-04-10T12:50:07.897Z,101200.25
2023-04-10T12:52:35.191Z,101207.38
2023-04-10T12:55:28.942Z,101189.50
2023-04-10T12:57:56.949Z,101193.94
2023-04-10T13:00:24.909Z,101192.09
2023-04-10T13:02:51.739Z,101177.84
2023-04-10T13:05:19.105Z,101176.91
2023-04-10T13:07:45.885Z,101178.72
2023-04-10T13:10:12.790Z,101172.44
2023-04-10T13:12:40.683Z,101176.97
2023-04-10T13:15:07.893Z,101163.50
2023-04-10T13:17:34.812Z,101146.53
2023-04-10T13:20:01.513Z,101131.34
2023-04-10T13:22:28.167Z,101134.84
2023-04-10T13:24:54.719Z,101126.78
2023-04-10T13:27:21.296Z,101129.38
2023-04-10T13:29:47.857Z,101121.31
2023-04-10T13:32:14.459Z,101106.19
2023-04-10T13:34:41.051Z,101097.28
2023-04-10T13:37:13.012Z,101097.28
2023-04-10T13:39:39.618Z,101084.84
2023-04-10T13:42:06.360Z,101083.03
2023-04-10T13:44:32.952Z,101070.50
2023-04-10T13:46:59.625Z,101061.53
2023-04-10T13:49:26.617Z,101056.16
2023-04-10T13:51:53.189Z,101046.38
2023-04-10T13:54:20.116Z,101049.06
2023-04-10T13:56:46.924Z,101040.88
2023-04-10T13:59:13.666Z,101028.38
2023-04-10T14:01:40.484Z,101027.50
2023-04-10T14:04:07.204Z,101024.00
2023-04-10T14:06:33.907Z,101023.91
2023-04-10T14:09:00.631Z,101016.72
2023-04-10T14:11:27.175Z,101023.91
2023-04-10T14:13:53.838Z,101006.00
2023-04-10T14:16:20.543Z,101003.19
2023-04-10T14:18:47.183Z,100998.66
2023-04-10T14:21:13.770Z,100992.28
2023-04-10T14:23:41.408Z,100980.81
2023-04-10T14:26:08.070Z,100975.44
2023-04-10T14:28:35.008Z,100985.22
2023-04-10T14:31:01.883Z,100974.50
2023-04-10T14:33:28.605Z,100971.78
2023-04-10T14:35:55.619Z,100965.44
2023-04-10T14:38:22.320Z,100970.06
2023-04-10T14:40:50.300Z,100984.31
2023-04-10T14:43:17.409Z,100967.28
2023-04-10T14:45:44.106Z,100970.06
2023-04-10T14:48:12.884Z,100975.31
2023-04-10T14:50:39.872Z,100980.69
2023-04-10T14:53:09.508Z,100985.97
2023-04-10T14:55:37.085Z,100975.31
2023-04-10T14:58:04.039Z,100972.69
2023-04-10T15:00:30.681Z,100978.00
2023-04-10T15:02:57.445Z,100973.59
2023-04-10T15:05:24.256Z,100961.84
2023-04-10T15:07:50.963Z,100964.59
2023-04-10T15:10:17.664Z,100952.16
2023-04-10T15:12:44.279Z,100944.97
2023-04-10T15:15:11.035Z,100950.34
2023-04-10T15:17:37.599Z,100939.72
2023-04-10T15:20:05.105Z,100937.91
2023-04-10T15:22:31.645Z,100943.28
2023-04-10T15:24:58.216Z,100940.50
2023-04-10T15:27:24.917Z,100934.34
2023-04-10T15:29:55.822Z,100930.72
2023-04-10T15:32:22.470Z,100925.47
2023-04-10T15:34:49.192Z,100920.94
2023-04-10T15:37:15.771Z,100920.03
2023-04-10T15:39:42.385Z,100914.66
2023-04-10T15:42:08.957Z,100914.75
2023-04-10T15:44:35.545Z,100904.16
2023-04-10T15:47:02.201Z,100893.44
2023-04-10T15:49:37.012Z,100889.88
2023-04-10T15:52:04.703Z,100877.50
2023-04-10T15:54:33.629Z,100871.25
2023-04-10T15:57:01.520Z,100861.41
2023-04-10T15:59:28.119Z,100862.25
2023-04-10T16:01:54.832Z,100866.78
2023-04-10T16:04:21.558Z,100865.06
2023-04-10T16:06:48.264Z,100857.81
2023-04-10T16:09:24.657Z,100856.00
2023-04-10T16:11:52.767Z,100852.44
2023-04-10T16:14:19.432Z,100845.31
2023-04-10T16:16:46.105Z,100841.78
2023-04-10T16:19:12.699Z,100836.44
2023-04-10T16:21:39.345Z,100834.56
2023-04-10T16:24:06.111Z,100825.63
2023-04-10T16:26:32.679Z,100830.97
2023-04-10T16:28:59.239Z,100838.00
2023-04-10T16:31:26.064Z,100829.22
2023-04-10T16:33:52.653Z,100824.75
2023-04-10T16:36:19.242Z,100818.56
2023-04-10T16:38:49.611Z,100819.47
2023-04-10T16:41:20.744Z,100816.78
2023-04-10T16:43:47.682Z,100809.66
2023-04-10T16:46:14.371Z,100807.88
2023-04-10T16:48:41.026Z,100803.53
2023-04-10T16:51:09.459Z,100795.47
2023-04-10T16:53:36.282Z,100789.41
2023-04-10T16:56:05.233Z,100784.78
2023-04-10T16:58:33.681Z,100765.22
2023-04-10T17:01:00.681Z,100758.09
2023-04-10T17:03:27.422Z,100759.91
2023-04-10T17:05:54.030Z,100769.72
2023-04-10T17:08:20.660Z,100756.31
2023-04-10T17:10:47.226Z,100749.19
2023-04-10T17:13:13.840Z,100754.53
2023-04-10T17:15:40.399Z,100754.44
2023-04-10T17:18:06.989Z,100740.19
2023-04-10T17:20:36.904Z,100735.78
2023-04-10T17:23:03.604Z,100731.41
2023-04-10T17:25:30.463Z,100741.28
2023-04-10T17:27:57.665Z,100728.81
2023-04-10T17:30:24.318Z,100738.53
2023-04-10T17:32:51.005Z,100735.00
2023-04-10T17:35:17.686Z,100730.41
2023-04-10T17:37:44.229Z,100727.78
2023-04-10T17:40:11.328Z,100724.13
2023-04-10T17:42:37.978Z,100726.00
2023-04-10T17:45:04.893Z,100730.53
2023-04-10T17:47:31.646Z,100722.50
2023-04-10T17:49:58.283Z,100731.47
2023-04-10T17:52:24.880Z,100726.16
2023-04-10T17:54:51.470Z,100722.59
2023-04-10T17:57:18.047Z,100711.91
2023-04-10T17:59:44.634Z,100715.50
2023-04-10T18:02:11.330Z,100722.59
2023-04-10T18:04:38.004Z,100720.00
2023-04-10T18:07:04.574Z,100728.06
2023-04-10T18:09:31.282Z,100717.28
2023-04-10T18:11:57.863Z,100708.31
2023-04-10T18:14:24.420Z,100703.84
2023-04-10T18:16:51.048Z,100686.88
2023-04-10T18:19:17.643Z,100673.59
2023-04-10T18:21:45.895Z,100665.50
2023-04-10T18:24:13.911Z,100662.72
2023-04-10T18:26:40.589Z,100668.09
2023-04-10T18:29:07.780Z,100672.59
2023-04-10T18:31:34.375Z,100672.53
2023-04-10T18:34:07.862Z,100663.66
2023-04-10T18:36:35.551Z,100667.25
2023-04-10T18:39:02.189Z,100681.63
2023-04-10T18:41:28.767Z,100665.69
2023-04-10T18:44:04.045Z,100663.78
2023-04-10T18:46:32.416Z,100670.91
2023-04-10T18:49:01.115Z,100670.97
2023-04-10T18:51:28.177Z,100667.38
2023-04-10T18:53:55.080Z,100660.25
2023-04-10T18:56:22.033Z,100649.53
2023-04-10T18:58:50.114Z,100653.16
2023-04-10T19:01:17.973Z,100655.00
2023-04-10T19:03:52.681Z,100639.94
2023-04-10T19:06:23.868Z,100638.88
2023-04-10T19:08:51.185Z,100630.06
2023-04-10T19:11:18.700Z,100642.66
2023-04-10T19:13:45.553Z,100633.66
2023-04-10T19:16:14.616Z,100642.47
2023-04-10T19:18:41.323Z,100645.25
2023-04-10T19:21:07.921Z,100635.38
2023-04-10T19:23:34.989Z,100637.19
2023-04-10T19:26:01.619Z,100626.38
2023-04-10T19:28:29.285Z,100632.75
2023-04-10T19:30:56.007Z,100617.56
2023-04-10T19:33:22.764Z,100628.28
2023-04-10T19:35:49.376Z,100608.72
2023-04-10T19:38:15.967Z,100605.94
2023-04-10T19:40:44.405Z,100602.25
2023-04-10T19:43:11.375Z,100601.34
2023-04-10T19:45:38.871Z,100604.13
2023-04-10T19:48:07.162Z,100597.09
2023-04-10T19:50:34.000Z,100595.06
2023-04-10T19:53:00.554Z,100592.69
2023-04-10T19:55:27.217Z,100580.25
2023-04-10T19:57:54.761Z,100565.88
2023-04-10T20:00:21.362Z,100562.34
2023-04-10T20:02:48.102Z,100565.06
2023-04-10T20:05:14.940Z,100577.56
2023-04-10T20:07:41.712Z,100573.09
2023-04-10T20:10:08.743Z,100567.75
2023-04-10T20:12:35.630Z,100585.75
2023-04-10T20:15:03.257Z,100562.47
2023-04-10T20:17:30.596Z,100573.19
2023-04-10T20:19:57.354Z,100572.28
2023-04-10T20:22:23.908Z,100572.28
2023-04-10T20:24:50.492Z,100566.13
2023-04-10T20:27:17.278Z,100555.41
2023-04-10T20:29:43.855Z,100566.22
2023-04-10T20:32:10.546Z,100560.94
2023-04-10T20:34:37.212Z,100543.03
2023-04-10T20:37:04.686Z,100543.06
2023-04-10T20:39:32.549Z,100547.56
2023-04-10T20:41:59.098Z,100548.41
2023-04-10T20:44:25.645Z,100542.19
2023-04-10T20:46:52.358Z,100546.66
2023-04-10T20:49:18.976Z,100550.25
2023-04-10T20:51:45.602Z,100550.25
2023-04-10T20:54:12.213Z,100545.06
2023-04-10T20:56:43.423Z,100555.78
2023-04-10T20:59:11.252Z,100546.84
2023-04-10T21:01:38.160Z,100548.59
2023-04-10T21:04:05.415Z,100545.91
2023-04-10T21:06:33.312Z,100537.06
2023-04-10T21:08:59.904Z,100532.53
2023-04-10T21:11:27.182Z,100532.44
2023-04-10T21:13:54.185Z,100529.00
2023-04-10T21:16:20.871Z,100528.09
2023-04-10T21:18:47.800Z,100530.81
2023-04-10T21:21:14.586Z,100522.88
2023-04-10T21:23:41.194Z,100533.63
2023-04-10T21:26:07.876Z,100539.81
2023-04-10T21:28:34.470Z,100534.53
2023-04-10T21:31:01.018Z,100537.25
2023-04-10T21:33:27.677Z,100538.22
2023-04-10T21:35:54.268Z,100527.59
2023-04-10T21:38:20.904Z,100532.84
2023-04-10T21:40:51.507Z,100532.84
2023-04-10T21:43:18.338Z,100534.66
2023-04-10T21:45:44.911Z,100536.44
2023-04-10T21:48:11.503Z,100536.66
2023-04-10T21:50:38.097Z,100533.13
2023-04-10T21:53:04.640Z,100527.81
2023-04-10T21:55:31.222Z,100519.69
2023-04-10T21:57:58.972Z,100515.41
2023-04-10T22:00:25.728Z,100513.59
2023-04-10T22:02:52.531Z,100518.00
2023-04-10T22:05:19.373Z,100511.81
2023-04-10T22:07:45.961Z,100514.47
2023-04-10T22:10:12.537Z,100513.59
2023-04-10T22:12:39.102Z,100518.09
2023-04-10T22:15:07.829Z,100509.16
2023-04-10T22:17:34.571Z,100519.06
2023-04-10T22:20:01.416Z,100520.75
2023-04-10T22:22:28.057Z,100518.13
2023-04-10T22:24:54.652Z,100526.97
2023-04-10T22:27:23.049Z,100510.88
2023-04-10T22:30:02.094Z,100517.09
2023-04-10T22:32:29.750Z,100507.25
2023-04-10T22:34:56.355Z,100503.75
2023-04-10T22:37:22.957Z,100500.16
2023-04-10T22:39:49.579Z,100496.75
2023-04-10T22:42:16.161Z,100490.50
2023-04-10T22:44:44.603Z,100497.72
2023-04-10T22:47:11.165Z,100502.94
2023-04-10T22:49:37.723Z,100491.34
2023-04-10T22:52:04.301Z,100495.91
2023-04-10T22:54:30.929Z,100483.38
2023-04-10T22:56:57.812Z,100487.84
2023-04-10T22:59:24.395Z,100485.19
2023-04-10T23:01:51.467Z,100487.03
2023-04-10T23:04:18.285Z,100478.16
2023-04-10T23:06:44.924Z,100484.28
2023-04-10T23:09:11.541Z,100486.19
2023-04-10T23:11:38.229Z,100480.00
2023-04-10T23:14:04.775Z,100471.00
2023-04-10T23:16:31.394Z,100467.47
2023-04-10T23:18:58.028Z,100460.28
2023-04-10T23:21:24.578Z,100462.13
2023-04-10T23:23:51.148Z,100457.66
2023-04-10T23:26:17.699Z,100455.06
2023-04-10T23:28:44.259Z,100445.31
2023-04-10T23:31:11.409Z,100454.25
2023-04-10T23:33:38.009Z,100456.00
2023-04-10T23:36:05.125Z,100460.44
2023-04-10T23:38:31.674Z,100464.00
2023-04-10T23:40:58.287Z,100461.34
2023-04-10T23:43:24.850Z,100475.72
2023-04-10T23:45:51.408Z,100467.78
2023-04-10T23:48:17.963Z,100473.94
2023-04-10T23:50:44.525Z,100469.59
2023-04-10T23:53:12.219Z,100477.63
2023-04-10T23:55:39.994Z,100476.81
2023-04-10T23:58:06.545Z,100472.28
